sensor_id;sensor_type;location;lat;lon;timestamp;pressure;altitude;pressure_sealevel;temperature;humidity
22031;BME280;11179;52.106;21.024;2023-11-21T00:00:15;99734.28;;;0.22;75.82
22031;BME280;11179;52.106;21.024;2023-11-21T00:02:41;99755.50;;;0.38;75.81
22031;BME280;11179;52.106;21.024;2023-11-21T00:05:11;99697.31;;;0.03;75.70
22031;BME280;11179;52.106;21.024;2023-11-21T00:07:38;99761.50;;;0.40;75.92
22031;BME280;11179;52.106;21.024;2023-11-21T00:10:04;99692.13;;;0.08;75.82
22031;BME280;11179;52.106;21.024;2023-11-21T00:12:39;99758.19;;;0.38;75.78
22031;BME280;11179;52.106;21.024;2023-11-21T00:15:08;99747.56;;;0.30;75.94
22031;BME280;11179;52.106;21.024;2023-11-21T00:17:37;99762.31;;;0.28;76.04
22031;BME280;11179;52.106;21.024;2023-11-21T00:20:03;99774.16;;;0.27;75.91
22031;BME280;11179;52.106;21.024;2023-11-21T00:22:32;99754.03;;;0.23;76.04
22031;BME280;11179;52.106;21.024;2023-11-21T00:24:57;99770.84;;;0.31;75.95
22031;BME280;11179;52.106;21.024;2023-11-21T00:27:23;99780.41;;;0.34;75.50
22031;BME280;11179;52.106;21.024;2023-11-21T00:29:48;99744.66;;;0.05;75.66
22031;BME280;11179;52.106;21.024;2023-11-21T00:32:13;99778.72;;;0.20;75.67
22031;BME280;11179;52.106;21.024;2023-11-21T00:34:38;99759.00;;;0.12;76.09
22031;BME280;11179;52.106;21.024;2023-11-21T00:37:05;99748.38;;;0.04;76.11
22031;BME280;11179;52.106;21.024;2023-11-21T00:39:30;99797.03;;;0.37;75.90
22031;BME280;11179;52.106;21.024;2023-11-21T00:41:55;99771.25;;;0.22;75.82
22031;BME280;11179;52.106;21.024;2023-11-21T00:44:20;99758.38;;;0.17;75.88
22031;BME280;11179;52.106;21.024;2023-11-21T00:46:46;99780.81;;;0.24;75.58
22031;BME280;11179;52.106;21.024;2023-11-21T00:49:11;99780.59;;;0.19;75.55
22031;BME280;11179;52.106;21.024;2023-11-21T00:51:36;99783.28;;;0.19;75.72
22031;BME280;11179;52.106;21.024;2023-11-21T00:54:02;99789.75;;;0.25;75.99
22031;BME280;11179;52.106;21.024;2023-11-21T00:56:28;99774.13;;;0.07;75.78
22031;BME280;11179;52.106;21.024;2023-11-21T00:58:53;99794.47;;;0.03;75.72
22031;BME280;11179;52.106;21.024;2023-11-21T01:01:19;99781.59;;;-0.02;75.83
22031;BME280;11179;52.106;21.024;2023-11-21T01:03:48;99809.22;;;0.07;75.97
22031;BME280;11179;52.106;21.024;2023-11-21T01:06:14;99815.47;;;0.07;75.75
22031;BME280;11179;52.106;21.024;2023-11-21T01:08:39;99775.72;;;-0.18;75.77
22031;BME280;11179;52.106;21.024;2023-11-21T01:11:05;99813.19;;;0.11;76.12
22031;BME280;11179;52.106;21.024;2023-11-21T01:13:33;99798.19;;;0.02;75.77
22031;BME280;11179;52.106;21.024;2023-11-21T01:15:59;99793.81;;;0.01;75.75
22031;BME280;11179;52.106;21.024;2023-11-21T01:18:24;99809.81;;;0.02;75.84
22031;BME280;11179;52.106;21.024;2023-11-21T01:20:51;99791.56;;;-0.02;76.08
22031;BME280;11179;52.106;21.024;2023-11-21T01:23:18;99807.56;;;0.06;75.73
22031;BME280;11179;52.106;21.024;2023-11-21T01:25:43;99807.75;;;-0.02;75.67
22031;BME280;11179;52.106;21.024;2023-11-21T01:28:08;99804.41;;;-0.04;75.81
22031;BME280;11179;52.106;21.024;2023-11-21T01:30:33;99816.69;;;0.05;75.85
22031;BME280;11179;52.106;21.024;2023-11-21T01:32:59;99809.63;;;0.04;75.87
22031;BME280;11179;52.106;21.024;2023-11-21T01:35:24;99829.38;;;0.11;75.82
22031;BME280;11179;52.106;21.024;2023-11-21T01:37:50;99821.69;;;0.08;75.85
22031;BME280;11179;52.106;21.024;2023-11-21T01:40:15;99815.84;;;0.04;75.74
22031;BME280;11179;52.106;21.024;2023-11-21T01:42:41;99815.41;;;0.01;75.68
22031;BME280;11179;52.106;21.024;2023-11-21T01:45:09;99822.69;;;0.00;75.62
22031;BME280;11179;52.106;21.024;2023-11-21T01:47:35;99794.38;;;-0.24;75.56
22031;BME280;11179;52.106;21.024;2023-11-21T01:50:02;99806.03;;;-0.16;75.74
22031;BME280;11179;52.106;21.024;2023-11-21T01:52:29;99814.53;;;-0.19;75.96
22031;BME280;11179;52.106;21.024;2023-11-21T01:54:55;99816.66;;;-0.15;75.91
22031;BME280;11179;52.106;21.024;2023-11-21T01:57:21;99814.53;;;-0.19;75.75
22031;BME280;11179;52.106;21.024;2023-11-21T01:59:48;99811.81;;;-0.26;75.75
22031;BME280;11179;52.106;21.024;2023-11-21T02:02:13;99794.13;;;-0.35;75.73
22031;BME280;11179;52.106;21.024;2023-11-21T02:04:39;99821.59;;;-0.18;75.79
22031;BME280;11179;52.106;21.024;2023-11-21T02:07:04;99804.72;;;-0.34;75.77
22031;BME280;11179;52.106;21.024;2023-11-21T02:09:33;99839.22;;;-0.23;75.55
22031;BME280;11179;52.106;21.024;2023-11-21T02:11:59;99788.44;;;-0.53;75.96
22031;BME280;11179;52.106;21.024;2023-11-21T02:14:26;99840.09;;;-0.15;76.03
22031;BME280;11179;52.106;21.024;2023-11-21T02:16:53;99784.13;;;-0.54;75.75
22031;BME280;11179;52.106;21.024;2023-11-21T02:19:19;99825.09;;;-0.31;75.80
22031;BME280;11179;52.106;21.024;2023-11-21T02:21:51;99834.91;;;-0.17;76.05
22031;BME280;11179;52.106;21.024;2023-11-21T02:24:20;99828.66;;;-0.17;76.00
22031;BME280;11179;52.106;21.024;2023-11-21T02:26:46;99840.94;;;-0.08;75.97
22031;BME280;11179;52.106;21.024;2023-11-21T02:29:12;99845.69;;;-0.10;75.58
22031;BME280;11179;52.106;21.024;2023-11-21T02:31:38;99847.34;;;-0.16;75.71
22031;BME280;11179;52.106;21.024;2023-11-21T02:34:13;99832.00;;;-0.15;76.02
22031;BME280;11179;52.106;21.024;2023-11-21T02:36:39;99838.22;;;-0.08;75.95
22031;BME280;11179;52.106;21.024;2023-11-21T02:39:04;99848.63;;;-0.05;75.57
22031;BME280;11179;52.106;21.024;2023-11-21T02:41:29;99845.09;;;0.01;75.74
22031;BME280;11179;52.106;21.024;2023-11-21T02:43:55;99829.91;;;-0.13;75.71
22031;BME280;11179;52.106;21.024;2023-11-21T02:46:20;99843.81;;;-0.16;75.06
22031;BME280;11179;52.106;21.024;2023-11-21T02:48:46;99804.03;;;-0.49;75.69
22031;BME280;11179;52.106;21.024;2023-11-21T02:51:11;99839.41;;;-0.31;75.78
22031;BME280;11179;52.106;21.024;2023-11-21T02:53:36;99793.00;;;-0.61;75.64
22031;BME280;11179;52.106;21.024;2023-11-21T02:56:04;99861.19;;;-0.26;75.95
22031;BME280;11179;52.106;21.024;2023-11-21T02:58:29;99839.16;;;-0.42;75.75
22031;BME280;11179;52.106;21.024;2023-11-21T03:00:55;99843.69;;;-0.43;75.79
22031;BME280;11179;52.106;21.024;2023-11-21T03:03:21;99836.44;;;-0.42;75.97
22031;BME280;11179;52.106;21.024;2023-11-21T03:05:49;99840.59;;;-0.40;75.81
22031;BME280;11179;52.106;21.024;2023-11-21T03:08:14;99831.19;;;-0.50;75.67
22031;BME280;11179;52.106;21.024;2023-11-21T03:10:39;99860.97;;;-0.31;75.86
22031;BME280;11179;52.106;21.024;2023-11-21T03:13:04;99847.22;;;-0.42;75.60
22031;BME280;11179;52.106;21.024;2023-11-21T03:15:30;99854.88;;;-0.46;75.75
22031;BME280;11179;52.106;21.024;2023-11-21T03:17:55;99806.59;;;-0.75;75.74
22031;BME280;11179;52.106;21.024;2023-11-21T03:20:20;99862.00;;;-0.32;75.61
22031;BME280;11179;52.106;21.024;2023-11-21T03:22:46;99830.03;;;-0.41;75.67
22031;BME280;11179;52.106;21.024;2023-11-21T03:25:11;99870.94;;;-0.25;75.42
22031;BME280;11179;52.106;21.024;2023-11-21T03:27:36;99864.06;;;-0.34;75.17
22031;BME280;11179;52.106;21.024;2023-11-21T03:30:04;99876.53;;;-0.33;75.46
22031;BME280;11179;52.106;21.024;2023-11-21T03:32:33;99859.00;;;-0.50;75.52
22031;BME280;11179;52.106;21.024;2023-11-21T03:34:58;99837.78;;;-0.60;75.40
22031;BME280;11179;52.106;21.024;2023-11-21T03:37:24;99878.34;;;-0.40;75.31
22031;BME280;11179;52.106;21.024;2023-11-21T03:39:50;99874.84;;;-0.40;75.49
22031;BME280;11179;52.106;21.024;2023-11-21T03:42:15;99832.91;;;-0.77;74.95
22031;BME280;11179;52.106;21.024;2023-11-21T03:44:41;99864.31;;;-0.63;75.16
22031;BME280;11179;52.106;21.024;2023-11-21T03:47:06;99874.31;;;-0.57;75.24
22031;BME280;11179;52.106;21.024;2023-11-21T03:49:31;99874.13;;;-0.55;75.19
22031;BME280;11179;52.106;21.024;2023-11-21T03:51:56;99879.84;;;-0.65;75.17
22031;BME280;11179;52.106;21.024;2023-11-21T03:54:22;99892.31;;;-0.64;75.03
22031;BME280;11179;52.106;21.024;2023-11-21T03:56:47;99874.97;;;-0.83;75.16
22031;BME280;11179;52.106;21.024;2023-11-21T03:59:12;99881.63;;;-0.79;75.37
22031;BME280;11179;52.106;21.024;2023-11-21T04:01:38;99866.25;;;-0.85;75.32
22031;BME280;11179;52.106;21.024;2023-11-21T04:04:03;99869.22;;;-0.73;75.48
22031;BME280;11179;52.106;21.024;2023-11-21T04:06:29;99877.22;;;-0.59;75.29
22031;BME280;11179;52.106;21.024;2023-11-21T04:08:54;99866.34;;;-0.72;75.21
22031;BME280;11179;52.106;21.024;2023-11-21T04:11:20;99853.63;;;-0.84;74.93
22031;BME280;11179;52.106;21.024;2023-11-21T04:13:45;99862.72;;;-0.85;75.13
22031;BME280;11179;52.106;21.024;2023-11-21T04:16:12;99911.59;;;-0.67;75.12
22031;BME280;11179;52.106;21.024;2023-11-21T04:18:38;99911.59;;;-0.67;75.01
22031;BME280;11179;52.106;21.024;2023-11-21T04:21:07;99930.66;;;-0.69;75.04
22031;BME280;11179;52.106;21.024;2023-11-21T04:23:33;99910.25;;;-0.78;75.32
22031;BME280;11179;52.106;21.024;2023-11-21T04:25:59;99904.03;;;-0.78;75.10
22031;BME280;11179;52.106;21.024;2023-11-21T04:28:24;99875.56;;;-0.87;75.24
22031;BME280;11179;52.106;21.024;2023-11-21T04:30:50;99902.03;;;-0.70;75.14
22031;BME280;11179;52.106;21.024;2023-11-21T04:33:18;99900.44;;;-0.58;75.14
22031;BME280;11179;52.106;21.024;2023-11-21T04:35:44;99871.25;;;-0.82;74.69
22031;BME280;11179;52.106;21.024;2023-11-21T04:38:09;99914.41;;;-0.75;74.90
22031;BME280;11179;52.106;21.024;2023-11-21T04:40:34;99930.41;;;-0.74;74.59
22031;BME280;11179;52.106;21.024;2023-11-21T04:43:00;99938.44;;;-0.80;74.89
22031;BME280;11179;52.106;21.024;2023-11-21T04:45:25;99915.13;;;-0.95;74.98
22031;BME280;11179;52.106;21.024;2023-11-21T04:47:50;99891.63;;;-1.01;75.23
22031;BME280;11179;52.106;21.024;2023-11-21T04:50:17;99896.84;;;-0.93;75.21
22031;BME280;11179;52.106;21.024;2023-11-21T04:52:43;99907.31;;;-0.83;75.12
22031;BME280;11179;52.106;21.024;2023-11-21T04:55:08;99898.94;;;-0.95;74.76
22031;BME280;11179;52.106;21.024;2023-11-21T04:57:36;99916.38;;;-0.90;74.63
22031;BME280;11179;52.106;21.024;2023-11-21T05:00:01;99907.59;;;-0.99;74.85
22031;BME280;11179;52.106;21.024;2023-11-21T05:02:31;99892.91;;;-1.18;74.80
22031;BME280;11179;52.106;21.024;2023-11-21T05:04:56;99923.81;;;-0.93;75.04
22031;BME280;11179;52.106;21.024;2023-11-21T05:07:22;99917.28;;;-0.83;75.07
22031;BME280;11179;52.106;21.024;2023-11-21T05:09:47;99947.41;;;-0.73;74.65
22031;BME280;11179;52.106;21.024;2023-11-21T05:12:13;99960.25;;;-0.75;74.89
22031;BME280;11179;52.106;21.024;2023-11-21T05:14:39;99930.63;;;-0.97;74.96
22031;BME280;11179;52.106;21.024;2023-11-21T05:17:04;99931.69;;;-0.91;74.70
22031;BME280;11179;52.106;21.024;2023-11-21T05:19:30;99964.88;;;-0.69;74.83
22031;BME280;11179;52.106;21.024;2023-11-21T05:21:55;99959.59;;;-0.77;74.84
22031;BME280;11179;52.106;21.024;2023-11-21T05:24:20;99933.13;;;-0.95;74.61
22031;BME280;11179;52.106;21.024;2023-11-21T05:26:46;99901.41;;;-1.21;74.85
22031;BME280;11179;52.106;21.024;2023-11-21T05:29:11;99953.72;;;-0.87;74.84
22031;BME280;11179;52.106;21.024;2023-11-21T05:31:36;99958.84;;;-0.93;74.43
22031;BME280;11179;52.106;21.024;2023-11-21T05:34:03;99920.00;;;-1.26;74.42
22031;BME280;11179;52.106;21.024;2023-11-21T05:36:30;99946.03;;;-1.12;74.88
22031;BME280;11179;52.106;21.024;2023-11-21T05:38:55;99961.03;;;-1.03;74.76
22031;BME280;11179;52.106;21.024;2023-11-21T05:41:21;99937.69;;;-1.17;75.02
22031;BME280;11179;52.106;21.024;2023-11-21T05:43:46;99966.69;;;-0.98;74.72
22031;BME280;11179;52.106;21.024;2023-11-21T05:46:11;99966.41;;;-1.03;74.56
22031;BME280;11179;52.106;21.024;2023-11-21T05:48:38;99991.25;;;-0.86;74.69
22031;BME280;11179;52.106;21.024;2023-11-21T05:51:06;99990.47;;;-0.80;74.72
22031;BME280;11179;52.106;21.024;2023-11-21T05:53:31;99943.06;;;-1.17;74.78
22031;BME280;11179;52.106;21.024;2023-11-21T05:55:56;99975.84;;;-0.92;74.86
22031;BME280;11179;52.106;21.024;2023-11-21T05:58:22;100002.34;;;-0.74;74.82
22031;BME280;11179;52.106;21.024;2023-11-21T06:00:48;100000.22;;;-0.79;74.53
22031;BME280;11179;52.106;21.024;2023-11-21T06:03:13;99987.72;;;-0.86;74.81
22031;BME280;11179;52.106;21.024;2023-11-21T06:05:38;99975.28;;;-0.87;74.75
22031;BME280;11179;52.106;21.024;2023-11-21T06:08:04;100013.78;;;-0.72;74.72
22031;BME280;11179;52.106;21.024;2023-11-21T06:10:29;99999.91;;;-0.90;74.41
22031;BME280;11179;52.106;21.024;2023-11-21T06:12:55;100020.56;;;-0.76;74.78
22031;BME280;11179;52.106;21.024;2023-11-21T06:15:20;100018.72;;;-0.76;74.61
22031;BME280;11179;52.106;21.024;2023-11-21T06:17:48;99986.00;;;-0.94;74.69
22031;BME280;11179;52.106;21.024;2023-11-21T06:20:20;99999.91;;;-0.90;74.38
22031;BME280;11179;52.106;21.024;2023-11-21T06:22:48;100021.94;;;-0.87;74.42
22031;BME280;11179;52.106;21.024;2023-11-21T06:25:14;100004.59;;;-0.99;74.70
22031;BME280;11179;52.106;21.024;2023-11-21T06:27:41;99987.47;;;-1.13;74.50
22031;BME280;11179;52.106;21.024;2023-11-21T06:30:07;100007.50;;;-1.01;74.42
22031;BME280;11179;52.106;21.024;2023-11-21T06:32:35;100001.50;;;-1.17;74.33
22031;BME280;11179;52.106;21.024;2023-11-21T06:35:01;99997.16;;;-1.18;74.39
22031;BME280;11179;52.106;21.024;2023-11-21T06:37:27;100048.88;;;-0.87;74.58
22031;BME280;11179;52.106;21.024;2023-11-21T06:39:53;100025.47;;;-1.08;74.33
22031;BME280;11179;52.106;21.024;2023-11-21T06:42:18;100037.00;;;-0.93;74.59
22031;BME280;11179;52.106;21.024;2023-11-21T06:44:47;100040.16;;;-0.89;74.49
22031;BME280;11179;52.106;21.024;2023-11-21T06:47:14;100063.25;;;-0.80;74.31
22031;BME280;11179;52.106;21.024;2023-11-21T06:49:40;100033.69;;;-0.95;74.40
22031;BME280;11179;52.106;21.024;2023-11-21T06:52:06;100044.06;;;-0.92;74.40
22031;BME280;11179;52.106;21.024;2023-11-21T06:54:31;100025.13;;;-0.98;74.47
22031;BME280;11179;52.106;21.024;2023-11-21T06:56:58;100020.97;;;-1.01;74.43
22031;BME280;11179;52.106;21.024;2023-11-21T06:59:23;100020.31;;;-1.03;74.01
22031;BME280;11179;52.106;21.024;2023-11-21T07:01:49;100032.75;;;-1.02;74.36
22031;BME280;11179;52.106;21.024;2023-11-21T07:04:15;100038.44;;;-0.97;74.32
22031;BME280;11179;52.106;21.024;2023-11-21T07:06:40;100074.38;;;-0.68;74.57
22031;BME280;11179;52.106;21.024;2023-11-21T07:09:06;100072.56;;;-0.61;74.44
22031;BME280;11179;52.106;21.024;2023-11-21T07:11:34;100042.94;;;-0.82;74.29
22031;BME280;11179;52.106;21.024;2023-11-21T07:13:59;100026.44;;;-0.94;74.16
22031;BME280;11179;52.106;21.024;2023-11-21T07:16:25;100055.44;;;-0.75;74.07
22031;BME280;11179;52.106;21.024;2023-11-21T07:18:51;100035.78;;;-0.90;74.28
22031;BME280;11179;52.106;21.024;2023-11-21T07:21:17;100038.63;;;-0.98;74.23
22031;BME280;11179;52.106;21.024;2023-11-21T07:23:42;100058.13;;;-0.96;73.91
22031;BME280;11179;52.106;21.024;2023-11-21T07:26:07;100047.53;;;-0.98;74.22
22031;BME280;11179;52.106;21.024;2023-11-21T07:28:35;100062.72;;;-0.90;74.30
22031;BME280;11179;52.106;21.024;2023-11-21T07:31:01;100059.41;;;-0.92;74.33
22031;BME280;11179;52.106;21.024;2023-11-21T07:33:26;100039.81;;;-1.01;74.15
22031;BME280;11179;52.106;21.024;2023-11-21T07:35:52;100086.94;;;-0.75;74.48
22031;BME280;11179;52.106;21.024;2023-11-21T07:38:17;100087.72;;;-0.81;74.10
22031;BME280;11179;52.106;21.024;2023-11-21T07:40:43;100068.50;;;-0.93;74.37
22031;BME280;11179;52.106;21.024;2023-11-21T07:43:08;100105.72;;;-0.67;74.30
22031;BME280;11179;52.106;21.024;2023-11-21T07:45:34;100058.88;;;-1.02;74.01
22031;BME280;11179;52.106;21.024;2023-11-21T07:47:59;100048.88;;;-1.08;73.98
22031;BME280;11179;52.106;21.024;2023-11-21T07:50:26;100108.78;;;-0.70;74.13
22031;BME280;11179;52.106;21.024;2023-11-21T07:52:52;100099.41;;;-0.74;74.17
22031;BME280;11179;52.106;21.024;2023-11-21T07:55:19;100084.81;;;-0.80;74.16
22031;BME280;11179;52.106;21.024;2023-11-21T07:57:44;100088.09;;;-0.84;74.00
22031;BME280;11179;52.106;21.024;2023-11-21T08:00:10;100059.97;;;-0.97;74.19
22031;BME280;11179;52.106;21.024;2023-11-21T08:02:38;100091.31;;;-0.74;73.81
22031;BME280;11179;52.106;21.024;2023-11-21T08:05:04;100058.69;;;-1.01;73.88
22031;BME280;11179;52.106;21.024;2023-11-21T08:07:29;100076.50;;;-0.85;74.03
22031;BME280;11179;52.106;21.024;2023-11-21T08:09:56;100075.19;;;-0.89;74.02
22031;BME280;11179;52.106;21.024;2023-11-21T08:12:21;100067.28;;;-0.90;74.05
22031;BME280;11179;52.106;21.024;2023-11-21T08:14:47;100119.09;;;-0.74;74.05
22031;BME280;11179;52.106;21.024;2023-11-21T08:17:12;100097.34;;;-0.94;73.89
22031;BME280;11179;52.106;21.024;2023-11-21T08:19:39;100123.78;;;-0.82;73.97
22031;BME280;11179;52.106;21.024;2023-11-21T08:22:04;100091.59;;;-1.05;74.06
22031;BME280;11179;52.106;21.024;2023-11-21T08:24:31;100106.44;;;-0.95;74.17
22031;BME280;11179;52.106;21.024;2023-11-21T08:26:56;100095.75;;;-1.03;74.04
22031;BME280;11179;52.106;21.024;2023-11-21T08:29:21;100118.69;;;-0.92;73.95
22031;BME280;11179;52.106;21.024;2023-11-21T08:31:48;100106.88;;;-0.91;74.21
22031;BME280;11179;52.106;21.024;2023-11-21T08:34:13;100114.56;;;-0.73;73.94
22031;BME280;11179;52.106;21.024;2023-11-21T08:36:43;100143.47;;;-0.67;73.97
22031;BME280;11179;52.106;21.024;2023-11-21T08:39:09;100135.47;;;-0.75;73.59
22031;BME280;11179;52.106;21.024;2023-11-21T08:41:35;100104.13;;;-0.98;74.11
22031;BME280;11179;52.106;21.024;2023-11-21T08:44:02;100144.84;;;-0.71;73.87
22031;BME280;11179;52.106;21.024;2023-11-21T08:46:32;100141.69;;;-0.75;74.20
22031;BME280;11179;52.106;21.024;2023-11-21T08:48:59;100142.16;;;-0.71;74.03
22031;BME280;11179;52.106;21.024;2023-11-21T08:51:24;100122.00;;;-0.75;73.70
22031;BME280;11179;52.106;21.024;2023-11-21T08:53:50;100107.28;;;-0.73;73.71
22031;BME280;11179;52.106;21.024;2023-11-21T08:56:15;100126.78;;;-0.56;73.90
22031;BME280;11179;52.106;21.024;2023-11-21T08:58:41;100133.06;;;-0.49;73.68
22031;BME280;11179;52.106;21.024;2023-11-21T09:01:06;100151.41;;;-0.38;73.59
22031;BME280;11179;52.106;21.024;2023-11-21T09:03:32;100104.41;;;-0.71;73.49
22031;BME280;11179;52.106;21.024;2023-11-21T09:06:00;100049.50;;;-1.06;73.38
22031;BME280;11179;52.106;21.024;2023-11-21T09:08:25;100158.09;;;-0.55;73.76
22031;BME280;11179;52.106;21.024;2023-11-21T09:10:50;100128.78;;;-0.79;73.49
22031;BME280;11179;52.106;21.024;2023-11-21T09:13:17;100129.06;;;-0.74;73.76
22031;BME280;11179;52.106;21.024;2023-11-21T09:15:43;100146.03;;;-0.59;73.92
22031;BME280;11179;52.106;21.024;2023-11-21T09:18:14;100173.44;;;-0.34;73.64
22031;BME280;11179;52.106;21.024;2023-11-21T09:20:40;100160.63;;;-0.32;73.73
22031;BME280;11179;52.106;21.024;2023-11-21T09:23:05;100150.53;;;-0.45;73.05
22031;BME280;11179;52.106;21.024;2023-11-21T09:25:32;100176.84;;;-0.47;73.05
22031;BME280;11179;52.106;21.024;2023-11-21T09:27:58;100184.66;;;-0.52;73.25
22031;BME280;11179;52.106;21.024;2023-11-21T09:30:23;100183.84;;;-0.52;73.25
22031;BME280;11179;52.106;21.024;2023-11-21T09:32:50;100173.88;;;-0.52;73.50
22031;BME280;11179;52.106;21.024;2023-11-21T09:35:15;100150.72;;;-0.68;73.48
22031;BME280;11179;52.106;21.024;2023-11-21T09:37:43;100151.53;;;-0.67;72.93
22031;BME280;11179;52.106;21.024;2023-11-21T09:40:10;100166.25;;;-0.70;72.92
22031;BME280;11179;52.106;21.024;2023-11-21T09:42:40;100165.84;;;-0.67;73.25
22031;BME280;11179;52.106;21.024;2023-11-21T09:45:16;100168.66;;;-0.53;73.58
22031;BME280;11179;52.106;21.024;2023-11-21T09:47:45;100134.78;;;-0.63;73.46
22031;BME280;11179;52.106;21.024;2023-11-21T09:50:16;100153.78;;;-0.49;73.08
22031;BME280;11179;52.106;21.024;2023-11-21T09:52:55;100151.69;;;-0.54;73.40
22031;BME280;11179;52.106;21.024;2023-11-21T09:55:22;100172.81;;;-0.36;72.79
22031;BME280;11179;52.106;21.024;2023-11-21T09:57:52;100116.38;;;-0.59;73.30
22031;BME280;11179;52.106;21.024;2023-11-21T10:00:18;100157.97;;;-0.26;72.69
22031;BME280;11179;52.106;21.024;2023-11-21T10:02:49;100143.09;;;-0.43;72.63
22031;BME280;11179;52.106;21.024;2023-11-21T10:05:16;100160.44;;;-0.31;72.85
22031;BME280;11179;52.106;21.024;2023-11-21T10:07:43;100159.63;;;-0.25;72.78
22031;BME280;11179;52.106;21.024;2023-11-21T10:10:10;100110.06;;;-0.45;72.69
22031;BME280;11179;52.106;21.024;2023-11-21T10:12:36;100150.72;;;-0.04;72.67
22031;BME280;11179;52.106;21.024;2023-11-21T10:15:07;100190.59;;;0.22;72.18
22031;BME280;11179;52.106;21.024;2023-11-21T10:17:35;100167.31;;;0.21;72.57
22031;BME280;11179;52.106;21.024;2023-11-21T10:20:08;100149.81;;;0.17;72.03
22031;BME280;11179;52.106;21.024;2023-11-21T10:22:38;100151.88;;;0.15;71.86
22031;BME280;11179;52.106;21.024;2023-11-21T10:25:06;100188.63;;;0.37;72.21
22031;BME280;11179;52.106;21.024;2023-11-21T10:27:33;100148.78;;;0.18;71.66
22031;BME280;11179;52.106;21.024;2023-11-21T10:30:01;100171.34;;;0.32;71.80
22031;BME280;11179;52.106;21.024;2023-11-21T10:32:28;100177.94;;;0.57;71.68
22031;BME280;11179;52.106;21.024;2023-11-21T10:34:57;100202.22;;;0.50;71.18
22031;BME280;11179;52.106;21.024;2023-11-21T10:37:22;100141.25;;;0.07;71.15
22031;BME280;11179;52.106;21.024;2023-11-21T10:39:48;100177.31;;;0.27;71.01
22031;BME280;11179;52.106;21.024;2023-11-21T10:42:14;100148.56;;;0.13;71.26
22031;BME280;11179;52.106;21.024;2023-11-21T10:44:41;100146.34;;;0.23;71.05
22031;BME280;11179;52.106;21.024;2023-11-21T10:47:09;100183.53;;;0.56;70.82
22031;BME280;11179;52.106;21.024;2023-11-21T10:49:37;100201.13;;;0.73;71.09
22031;BME280;11179;52.106;21.024;2023-11-21T10:52:03;100195.19;;;0.56;70.39
22031;BME280;11179;52.106;21.024;2023-11-21T10:54:29;100169.84;;;0.29;70.47
22031;BME280;11179;52.106;21.024;2023-11-21T10:56:59;100147.72;;;0.12;70.64
22031;BME280;11179;52.106;21.024;2023-11-21T10:59:29;100163.31;;;0.17;70.29
22031;BME280;11179;52.106;21.024;2023-11-21T11:01:57;100154.81;;;-0.08;70.22
22031;BME280;11179;52.106;21.024;2023-11-21T11:04:25;100135.22;;;-0.38;70.54
22031;BME280;11179;52.106;21.024;2023-11-21T11:06:57;100193.09;;;0.02;70.64
22031;BME280;11179;52.106;21.024;2023-11-21T11:09:23;100170.31;;;-0.16;70.53
22031;BME280;11179;52.106;21.024;2023-11-21T11:11:49;100179.19;;;-0.01;70.75
22031;BME280;11179;52.106;21.024;2023-11-21T11:14:15;100205.88;;;0.15;70.28
22031;BME280;11179;52.106;21.024;2023-11-21T11:16:41;100208.19;;;0.18;70.19
22031;BME280;11179;52.106;21.024;2023-11-21T11:26:16;100210.25;;;0.16;70.36
22031;BME280;11179;52.106;21.024;2023-11-21T11:34:32;100213.56;;;0.39;69.80
22031;BME280;11179;52.106;21.024;2023-11-21T11:37:02;100207.44;;;0.24;69.86
22031;BME280;11179;52.106;21.024;2023-11-21T11:39:41;100210.78;;;0.26;70.19
22031;BME280;11179;52.106;21.024;2023-11-21T11:42:17;100168.22;;;0.07;70.01
22031;BME280;11179;52.106;21.024;2023-11-21T11:47:15;100194.59;;;0.33;70.08
22031;BME280;11179;52.106;21.024;2023-11-21T11:50:00;100222.41;;;0.55;69.67
22031;BME280;11179;52.106;21.024;2023-11-21T11:55:12;100211.81;;;0.25;69.77
22031;BME280;11179;52.106;21.024;2023-11-21T11:57:39;100236.09;;;0.25;69.75
22031;BME280;11179;52.106;21.024;2023-11-21T12:00:22;100194.00;;;-0.12;70.08
22031;BME280;11179;52.106;21.024;2023-11-21T12:02:55;100207.25;;;0.04;70.06
22031;BME280;11179;52.106;21.024;2023-11-21T12:05:22;100200.88;;;0.12;70.45
22031;BME280;11179;52.106;21.024;2023-11-21T12:07:59;100213.75;;;0.10;69.69
22031;BME280;11179;52.106;21.024;2023-11-21T12:10:30;100218.41;;;0.01;70.28
22031;BME280;11179;52.106;21.024;2023-11-21T12:13:16;100233.03;;;0.07;70.26
22031;BME280;11179;52.106;21.024;2023-11-21T12:15:41;100251.59;;;-0.05;70.25
22031;BME280;11179;52.106;21.024;2023-11-21T12:18:07;100211.53;;;-0.23;70.22
22031;BME280;11179;52.106;21.024;2023-11-21T12:20:32;100208.06;;;-0.38;70.13
22031;BME280;11179;52.106;21.024;2023-11-21T12:23:04;100248.16;;;-0.13;70.23
22031;BME280;11179;52.106;21.024;2023-11-21T12:25:31;100192.91;;;-0.39;70.27
22031;BME280;11179;52.106;21.024;2023-11-21T12:28:02;100249.47;;;-0.09;70.23
22031;BME280;11179;52.106;21.024;2023-11-21T12:30:33;100228.00;;;-0.17;70.32
22031;BME280;11179;52.106;21.024;2023-11-21T12:33:02;100235.22;;;-0.03;70.20
22031;BME280;11179;52.106;21.024;2023-11-21T12:35:30;100253.03;;;0.12;70.16
22031;BME280;11179;52.106;21.024;2023-11-21T12:37:59;100259.63;;;0.10;69.83
22031;BME280;11179;52.106;21.024;2023-11-21T12:40:25;100226.91;;;-0.23;69.97
22031;BME280;11179;52.106;21.024;2023-11-21T12:42:58;100265.09;;;-0.05;70.09
22031;BME280;11179;52.106;21.024;2023-11-21T12:45:25;100271.69;;;-0.07;69.84
22031;BME280;11179;52.106;21.024;2023-11-21T12:50:23;100230.19;;;-0.28;70.01
22031;BME280;11179;52.106;21.024;2023-11-21T12:52:52;100242.16;;;-0.15;69.82
22031;BME280;11179;52.106;21.024;2023-11-21T12:55:20;100217.03;;;-0.52;69.65
22031;BME280;11179;52.106;21.024;2023-11-21T12:57:53;100283.94;;;-0.26;69.94
22031;BME280;11179;52.106;21.024;2023-11-21T13:00:36;100262.13;;;-0.46;70.10
22031;BME280;11179;52.106;21.024;2023-11-21T13:03:04;100259.50;;;-0.39;70.14
22031;BME280;11179;52.106;21.024;2023-11-21T13:05:35;100271.41;;;-0.34;70.17